Time;durP1;ratioP1;P1;durP2;ratioP2;P2;SDS_P1;SDS_P2;PMS_P1;PMS_P2;Temp;Humidity;BMP_temperature;BMP_pressure;BME280_temperature;BME280_humidity;BME280_pressure;Samples;Min_cycle;Max_cycle;Signal;HPM_P1;HPM_P2
2022/08/29 00:06:51;;;;;;;7.93;3.10;;;;;;;17.27;67.18;100573.50;20826521;28;20049;-69
2022/08/29 00:16:52;;;;;;;9.30;3.03;;;;;;;17.09;66.52;100565.34;20825869;28;20469;-68
2022/08/29 00:26:54;;;;;;;7.93;2.75;;;;;;;16.93;66.82;100574.84;20824256;28;20057;-68
2022/08/29 00:36:56;;;;;;;8.35;2.70;;;;;;;16.82;66.66;100574.41;20824012;28;20049;-68
2022/08/29 00:46:58;;;;;;;8.55;2.60;;;;;;;16.81;66.61;100572.66;20823639;28;20049;-68
2022/08/29 00:56:59;;;;;;;9.25;2.40;;;;;;;16.59;67.88;100572.59;20822235;28;20057;-68
2022/08/29 01:07:00;;;;;;;7.25;2.85;;;;;;;16.49;67.83;100590.59;20821734;28;20119;-68
2022/08/29 01:17:02;;;;;;;6.35;2.30;;;;;;;16.39;68.06;100590.06;20820912;28;20053;-68
2022/08/29 01:27:03;;;;;;;8.73;2.25;;;;;;;16.29;68.24;100598.34;20820417;28;20530;-68
2022/08/29 01:37:04;;;;;;;9.35;2.50;;;;;;;16.19;69.11;100602.25;20819253;28;20058;-68
2022/08/29 01:47:06;;;;;;;8.05;2.40;;;;;;;16.02;69.97;100601.06;20819168;28;20052;-68
2022/08/29 01:57:07;;;;;;;7.85;2.50;;;;;;;15.88;70.24;100598.91;20817769;28;20587;-68
2022/08/29 02:07:14;;;;;;;10.07;3.13;;;;;;;15.79;71.54;100608.91;20817869;28;20123;-68
2022/08/29 02:17:16;;;;;;;8.43;2.92;;;;;;;15.70;71.14;100609.22;20817317;28;20489;-68
2022/08/29 02:27:17;;;;;;;9.75;2.80;;;;;;;15.64;71.32;100611.16;20817020;28;20045;-68
2022/08/29 02:37:19;;;;;;;7.18;2.58;;;;;;;15.62;70.99;100612.97;20817140;28;20061;-67
2022/08/29 02:47:20;;;;;;;12.35;2.30;;;;;;;15.61;71.32;100605.09;20816580;28;20281;-67
2022/08/29 02:57:22;;;;;;;8.52;2.20;;;;;;;15.55;71.56;100618.50;20815613;28;20061;-67
2022/08/29 03:07:25;;;;;;;7.15;2.30;;;;;;;15.45;71.72;100619.69;20815614;28;20100;-68
2022/08/29 03:17:26;;;;;;;9.63;2.83;;;;;;;15.37;71.87;100612.88;20828322;28;20067;-67
2022/08/29 03:27:27;;;;;;;6.80;2.35;;;;;;;15.27;72.50;100605.31;20829856;28;20047;-68
2022/08/29 03:37:29;;;;;;;7.20;2.15;;;;;;;15.24;72.42;100602.78;20828941;28;20128;-68
2022/08/29 03:47:30;;;;;;;12.10;2.40;;;;;;;15.21;72.58;100602.88;20828681;28;20057;-68
2022/08/29 03:57:32;;;;;;;9.70;2.45;;;;;;;15.07;73.05;100603.31;20827659;28;20381;-68
2022/08/29 04:07:33;;;;;;;11.35;2.97;;;;;;;15.07;73.13;100604.16;20826624;28;20500;-68
2022/08/29 04:17:35;;;;;;;10.30;2.83;;;;;;;14.99;74.25;100600.03;20826100;28;20057;-68
2022/08/29 04:27:36;;;;;;;6.63;2.22;;;;;;;14.88;74.92;100613.53;20825331;28;20077;-68
2022/08/29 04:37:38;;;;;;;7.63;2.33;;;;;;;14.75;75.72;100612.19;20824506;28;20124;-68
2022/08/29 04:47:39;;;;;;;7.97;2.17;;;;;;;14.67;77.09;100624.75;20823922;28;20053;-68
2022/08/29 04:57:41;;;;;;;9.07;2.42;;;;;;;14.54;77.95;100635.63;20823688;28;20061;-70
2022/08/29 05:07:42;;;;;;;8.48;2.50;;;;;;;14.74;75.90;100647.34;20822186;28;20115;-69
2022/08/29 05:17:44;;;;;;;13.75;2.90;;;;;;;14.73;76.15;100651.78;20821482;28;20056;-69
2022/08/29 05:27:45;;;;;;;7.50;2.58;;;;;;;14.72;76.02;100650.06;20821840;28;20054;-69
2022/08/29 05:37:47;;;;;;;8.15;2.58;;;;;;;14.84;74.95;100660.22;20818930;28;20049;-69
2022/08/29 05:47:49;;;;;;;11.52;2.45;;;;;;;15.07;74.09;100659.53;20819195;28;20053;-69
2022/08/29 05:57:53;;;;;;;7.53;2.60;;;;;;;15.35;73.07;100656.06;20820067;28;20068;-68
2022/08/29 06:07:54;;;;;;;8.63;2.35;;;;;;;15.29;72.45;100669.47;20817833;28;20049;-68
2022/08/29 06:17:55;;;;;;;9.57;2.28;;;;;;;15.54;71.58;100672.19;20818200;28;20056;-68
2022/08/29 06:27:57;;;;;;;8.20;2.58;;;;;;;15.74;70.47;100690.06;20818376;28;20050;-68
2022/08/29 06:37:58;;;;;;;10.02;3.22;;;;;;;15.96;69.89;100684.94;20816920;28;20508;-68
2022/08/29 06:48:00;;;;;;;10.90;3.00;;;;;;;16.26;69.05;100707.69;20826076;28;20052;-69
2022/08/29 06:58:01;;;;;;;11.38;3.78;;;;;;;16.55;67.28;100706.66;20832939;28;20057;-69
2022/08/29 07:08:02;;;;;;;15.00;3.10;;;;;;;16.82;66.88;100698.69;20832586;28;20049;-69
2022/08/29 07:18:04;;;;;;;10.90;3.15;;;;;;;17.21;65.52;100703.41;20832492;28;20059;-69
2022/08/29 07:28:05;;;;;;;9.73;2.78;;;;;;;17.46;64.40;100708.59;20831769;28;20053;-69
2022/08/29 07:38:08;;;;;;;8.43;3.00;;;;;;;17.90;63.92;100697.09;20829817;28;20077;-69
2022/08/29 07:48:09;;;;;;;14.38;3.15;;;;;;;18.52;62.56;100705.97;20830283;28;20045;-69
2022/08/29 07:58:10;;;;;;;9.68;3.30;;;;;;;18.85;61.48;100697.47;20828386;28;20081;-69
2022/08/29 08:08:12;;;;;;;12.13;3.00;;;;;;;18.90;60.19;100698.13;20827187;28;20049;-69
2022/08/29 08:18:15;;;;;;;11.88;3.45;;;;;;;19.26;59.88;100692.03;20827466;28;20143;-69
2022/08/29 08:28:17;;;;;;;14.48;4.05;;;;;;;19.59;59.51;100706.38;20826307;28;20041;-69
2022/08/29 08:38:20;;;;;;;9.68;3.38;;;;;;;19.74;61.26;100715.47;20825307;28;20502;-69
2022/08/29 08:48:22;;;;;;;41.50;7.18;;;;;;;19.86;60.68;100713.97;20825285;28;20061;-70
2022/08/29 08:58:23;;;;;;;21.92;4.22;;;;;;;20.23;60.32;100707.69;20824236;28;20057;-69
2022/08/29 09:08:29;;;;;;;9.20;3.60;;;;;;;20.66;59.28;100705.50;20823214;28;20361;-70
2022/08/29 09:18:32;;;;;;;11.10;3.90;;;;;;;20.67;58.75;100716.06;20822827;28;20053;-69
2022/08/29 09:28:35;;;;;;;18.00;4.53;;;;;;;20.75;58.81;100710.34;20822277;28;20049;-70
2022/08/29 09:38:36;;;;;;;15.13;4.07;;;;;;;20.93;58.63;100711.13;20820823;28;20049;-70
2022/08/29 09:48:38;;;;;;;12.23;3.95;;;;;;;21.54;57.90;100701.63;20821205;28;20049;-70
2022/08/29 09:58:40;;;;;;;14.00;4.00;;;;;;;21.71;55.46;100699.72;20820258;28;20087;-70
2022/08/29 10:08:41;;;;;;;11.63;3.50;;;;;;;22.07;54.99;100671.00;20819251;28;20053;-70
2022/08/29 10:18:43;;;;;;;11.40;3.88;;;;;;;22.63;54.59;100678.28;20823029;28;20046;-69
2022/08/29 10:28:46;;;;;;;11.93;3.80;;;;;;;22.92;51.81;100663.16;20845559;28;20053;-69
2022/08/29 10:38:51;;;;;;;9.05;4.00;;;;;;;23.36;51.89;100663.94;20844100;28;20049;-69
2022/08/29 10:48:53;;;;;;;10.98;4.15;;;;;;;23.37;51.13;100666.50;20845279;28;20050;-69
2022/08/29 10:58:54;;;;;;;9.68;3.50;;;;;;;23.77;50.69;100648.75;20844978;28;20053;-69
2022/08/29 11:08:56;;;;;;;7.88;3.30;;;;;;;23.99;49.01;100647.28;20843771;28;20049;-69
2022/08/29 11:18:57;;;;;;;9.90;3.78;;;;;;;24.42;47.33;100628.31;20843577;28;20498;-68
2022/08/29 11:28:59;;;;;;;8.80;3.20;;;;;;;24.47;46.94;100620.81;20842813;28;20049;-69
2022/08/29 11:39:00;;;;;;;14.43;3.50;;;;;;;24.46;45.78;100613.75;20828064;28;20065;-68
2022/08/29 11:49:01;;;;;;;13.95;3.60;;;;;;;25.04;45.72;100609.59;20829315;28;20064;-69
2022/08/29 11:59:03;;;;;;;8.18;3.17;;;;;;;25.14;44.94;100589.22;20828129;28;20069;-69
2022/08/29 12:09:04;;;;;;;10.80;3.80;;;;;;;25.48;43.93;100576.84;20826098;28;20532;-69
2022/08/29 12:19:09;;;;;;;12.45;3.40;;;;;;;25.24;44.22;100574.16;20827371;28;20045;-68
2022/08/29 12:29:11;;;;;;;12.10;3.75;;;;;;;25.71;44.12;100564.38;20824744;28;20486;-69
2022/08/29 12:39:13;;;;;;;7.45;3.72;;;;;;;26.05;42.93;100553.75;20824864;28;20045;-68
2022/08/29 12:49:19;;;;;;;8.90;3.30;;;;;;;25.91;41.52;100540.56;20825865;28;20068;-68
2022/08/29 12:59:21;;;;;;;9.40;3.45;;;;;;;26.19;41.57;100524.00;20824617;28;20112;-69
2022/08/29 13:09:22;;;;;;;7.47;3.10;;;;;;;26.17;42.37;100512.56;20823026;28;20057;-69
2022/08/29 13:19:24;;;;;;;7.85;3.70;;;;;;;26.45;41.11;100502.34;20822911;28;20049;-68
2022/08/29 13:29:25;;;;;;;6.82;3.35;;;;;;;26.32;41.09;100508.66;20820942;28;20053;-68
2022/08/29 13:39:27;;;;;;;8.73;3.72;;;;;;;26.29;40.62;100495.47;20820689;28;20049;-68
2022/08/29 13:49:28;;;;;;;8.40;3.42;;;;;;;26.57;40.16;100480.69;20820592;28;20099;-69
2022/08/29 13:59:29;;;;;;;7.13;3.60;;;;;;;26.63;40.84;100484.72;20819497;28;20056;-68
2022/08/29 14:09:34;;;;;;;8.90;3.65;;;;;;;26.72;40.49;100478.59;20819548;28;20050;-68
2022/08/29 14:19:35;;;;;;;8.80;3.40;;;;;;;26.84;40.80;100466.00;20818449;28;20057;-68
2022/08/29 14:29:37;;;;;;;8.60;3.67;;;;;;;26.86;39.64;100446.06;20818640;28;20049;-68
2022/08/29 14:39:38;;;;;;;8.70;3.42;;;;;;;26.81;40.29;100434.84;20817394;28;20057;-68
2022/08/29 14:49:40;;;;;;;6.30;3.40;;;;;;;26.99;39.33;100431.63;20818201;28;20615;-68
2022/08/29 14:59:41;;;;;;;6.97;3.40;;;;;;;26.92;39.43;100425.03;20817885;28;20060;-69
2022/08/29 15:09:43;;;;;;;7.03;3.33;;;;;;;27.03;39.45;100423.16;20826048;28;20045;-68
2022/08/29 15:19:44;;;;;;;9.75;3.70;;;;;;;27.05;39.38;100410.44;20830812;28;20057;-68
2022/08/29 15:30:06;;;;;;;7.18;3.33;;;;;;;27.15;38.83;100407.84;20830543;28;20045;-69
2022/08/29 15:40:07;;;;;;;7.32;3.50;;;;;;;27.13;40.03;100393.72;20829830;28;20052;-68
2022/08/29 15:50:13;;;;;;;9.45;3.90;;;;;;;27.02;39.15;100399.97;20830097;28;20045;-68
2022/08/29 16:00:16;;;;;;;7.13;3.20;;;;;;;27.05;38.96;100390.78;20828227;28;20064;-68
2022/08/29 16:10:21;;;;;;;7.72;3.80;;;;;;;27.10;38.40;100392.13;20847271;28;20044;-68
2022/08/29 16:20:23;;;;;;;8.43;2.97;;;;;;;26.99;39.62;100377.88;20883138;28;20050;-68
2022/08/29 16:30:24;;;;;;;9.80;3.58;;;;;;;27.15;38.47;100358.63;20817773;28;20052;-68
2022/08/29 16:40:26;;;;;;;6.30;3.20;;;;;;;27.22;38.71;100357.13;20858944;28;20053;-69
2022/08/29 16:50:27;;;;;;;6.45;3.30;;;;;;;27.13;38.91;100358.75;20880878;28;20492;-69
2022/08/29 17:00:29;;;;;;;7.03;2.92;;;;;;;27.02;39.61;100351.59;20897565;28;20044;-69
2022/08/29 17:20:31;;;;;;;7.40;3.38;;;;;;;26.39;41.08;100357.81;20813398;28;20056;-70
2022/08/29 17:30:37;;;;;;;6.90;3.10;;;;;;;26.15;41.13;100360.66;20811836;28;20507;-69
2022/08/29 17:40:39;;;;;;;8.80;3.20;;;;;;;25.86;42.17;100365.69;20812112;28;20045;-69
2022/08/29 17:50:42;;;;;;;5.27;2.93;;;;;;;25.55;43.22;100374.34;20811583;28;20060;-69
2022/08/29 18:00:43;;;;;;;6.55;3.45;;;;;;;24.97;48.21;100384.16;20811049;28;20051;-69
2022/08/29 18:10:45;;;;;;;10.32;2.92;;;;;;;24.35;46.18;100389.69;20821723;28;20059;-69
2022/08/29 18:20:46;;;;;;;9.77;3.20;;;;;;;24.38;42.81;100407.34;20891278;28;20053;-69
2022/08/29 18:30:47;;;;;;;8.07;2.83;;;;;;;24.24;42.29;100401.19;20892363;28;20053;-69
2022/08/29 18:40:49;;;;;;;7.40;2.33;;;;;;;23.91;42.43;100411.63;20894077;28;20114;-69
2022/08/29 18:50:53;;;;;;;7.43;2.70;;;;;;;23.78;42.16;100427.69;20908357;28;20048;-69
2022/08/29 19:00:55;;;;;;;5.72;2.45;;;;;;;23.51;42.32;100431.25;20907353;28;20094;-69
2022/08/29 19:10:58;;;;;;;6.07;2.38;;;;;;;23.26;43.24;100440.13;20894286;28;20508;-68
2022/08/29 19:21:06;;;;;;;6.43;2.40;;;;;;;23.17;42.94;100445.22;20822451;28;20073;-68
2022/08/29 19:31:07;;;;;;;7.95;2.35;;;;;;;22.85;43.37;100460.69;20822399;28;20042;-68
2022/08/29 19:41:09;;;;;;;8.38;2.58;;;;;;;22.69;44.14;100458.16;20821455;28;20057;-68
2022/08/29 19:51:12;;;;;;;5.83;2.37;;;;;;;22.46;44.57;100481.84;20820046;28;20084;-68
2022/08/29 20:01:13;;;;;;;6.22;2.70;;;;;;;22.22;44.94;100486.94;20819929;28;20064;-68
2022/08/29 20:11:15;;;;;;;10.52;2.63;;;;;;;21.94;46.33;100492.22;20834626;28;20107;-68
2022/08/29 20:21:18;;;;;;;5.78;2.28;;;;;;;21.72;46.91;100495.34;20901002;28;20072;-68
2022/08/29 20:31:19;;;;;;;9.00;3.00;;;;;;;21.47;48.20;100501.31;20900013;28;20063;-68
2022/08/29 20:41:21;;;;;;;5.40;2.33;;;;;;;21.29;49.10;100499.69;20899379;28;20455;-68
2022/08/29 20:51:22;;;;;;;8.07;2.92;;;;;;;21.02;51.58;100508.31;20899102;28;20061;-68
2022/08/29 21:01:23;;;;;;;6.55;2.50;;;;;;;20.85;51.45;100509.28;20897361;28;20118;-68
2022/08/29 21:11:25;;;;;;;6.68;2.50;;;;;;;20.81;52.15;100513.06;20880434;28;20099;-67
2022/08/29 21:21:26;;;;;;;7.63;2.65;;;;;;;20.55;53.26;100527.81;20813183;28;20133;-68
2022/08/29 21:31:28;;;;;;;6.97;2.80;;;;;;;20.21;55.09;100540.25;20813031;28;20049;-68
2022/08/29 21:41:29;;;;;;;6.45;2.42;;;;;;;20.02;56.96;100547.47;20812297;28;20111;-68
2022/08/29 21:51:31;;;;;;;6.40;2.60;;;;;;;19.81;56.35;100538.84;20811516;28;20053;-68
2022/08/29 22:01:32;;;;;;;6.82;2.60;;;;;;;19.53;57.99;100542.00;20812445;28;20564;-68
2022/08/29 22:11:33;;;;;;;11.55;2.25;;;;;;;19.37;58.18;100549.03;20818283;28;20107;-68
2022/08/29 22:21:38;;;;;;;6.87;2.50;;;;;;;19.30;59.45;100560.88;20816635;28;20072;-68
2022/08/29 22:31:39;;;;;;;7.13;2.63;;;;;;;19.40;57.03;100572.75;20816507;28;20425;-68
2022/08/29 22:41:43;;;;;;;5.53;2.42;;;;;;;19.28;58.11;100571.59;20817322;28;20051;-69
2022/08/29 22:51:48;;;;;;;7.93;2.55;;;;;;;19.05;58.57;100562.06;20816947;28;20054;-68
2022/08/29 23:01:50;;;;;;;5.93;2.60;;;;;;;19.28;56.44;100553.00;20815525;28;20046;-68
2022/08/29 23:11:51;;;;;;;7.60;2.50;;;;;;;18.98;57.04;100539.44;20815991;28;20490;-68
2022/08/29 23:21:53;;;;;;;7.72;2.72;;;;;;;18.85;58.75;100533.00;20815559;28;20053;-68
2022/08/29 23:31:54;;;;;;;7.68;2.70;;;;;;;18.64;59.93;100533.06;20825596;28;20053;-68
2022/08/29 23:41:56;;;;;;;7.60;2.72;;;;;;;18.59;60.85;100547.44;20829856;28;20053;-68
2022/08/29 23:51:57;;;;;;;4.78;2.50;;;;;;;18.41;62.68;100543.88;20828966;28;20068;-68
